aviador You're here:

KABR Decoded Metar

ABERDEEN in SD, USA
Report Time2018-01-19 10:53:00
UTC Time2018-01-19 11:23:27
Flight Rules vfr VFR
Wind190° at 08 kt
W.Decomp.*RWY 17: 7.8 kt HW 1.8 kt RCW
RWY 13: 4.8 kt HW 6.4 kt RCW
W.Rank190° ranks 12
Current wind is below 190° avg. (8.8)
Visibility9999 m
Phenomena:N/A
Clouds:N/A
Expected CloudBase > 400 ft AGL from Temp-Dew spread
CeilingNone
Temp-3°C (ISA -15)
Dew Point-4°C (93% RH)
AAT-8.4°C
QNH1001 hPa
Density Alt-108 ft
Elevation1,302 ft
Report Wrong Elevation
Raw Report
METAR KABR 191053Z AUTO 19008KT 10SM CLR M03/M04 A2955 RMK AO2 SLP017
T10281039=

Extra information for KABR:More info

Metar Taf Metar & Taf Last 4 Metars F.Rules Stats Wind Profile Meteogram Temp Stats Airport Information Weather charts Add Link Nearby VenuesMetar ALERT Operation Metar Decoded Social comments

AIRNAV info for KABR